createdAt,value
2022-09-28T00:00:23.852Z,8.73
2022-09-28T00:04:25.638Z,8.73
2022-09-28T00:08:27.414Z,8.70
2022-09-28T00:12:31.009Z,8.69
2022-09-28T00:16:35.962Z,8.70
2022-09-28T00:20:37.835Z,8.69
2022-09-28T00:24:39.627Z,8.68
2022-09-28T00:28:41.281Z,8.63
2022-09-28T00:32:43.391Z,8.60
2022-09-28T00:36:47.909Z,8.57
2022-09-28T00:40:49.652Z,8.55
2022-09-28T00:44:52.293Z,8.52
2022-09-28T00:49:03.154Z,8.50
2022-09-28T00:53:10.793Z,8.50
2022-09-28T00:57:13.970Z,8.52
2022-09-28T01:01:16.473Z,8.55
2022-09-28T01:05:20.401Z,8.57
2022-09-28T01:09:22.297Z,8.58
2022-09-28T01:13:25.141Z,8.57
2022-09-28T01:17:39.926Z,8.59
2022-09-28T01:22:11.313Z,8.61
2022-09-28T01:26:37.525Z,8.65
2022-09-28T01:31:00.860Z,8.67
2022-09-28T01:35:08.374Z,8.68
2022-09-28T01:39:15.375Z,8.67
2022-09-28T01:43:32.675Z,8.63
2022-09-28T01:47:38.523Z,8.61
2022-09-28T01:51:45.950Z,8.63
2022-09-28T01:55:57.006Z,8.60
2022-09-28T02:00:09.347Z,8.56
2022-09-28T02:04:54.038Z,8.58
2022-09-28T02:09:02.294Z,8.62
2022-09-28T02:13:28.152Z,8.65
2022-09-28T02:17:30.027Z,8.65
2022-09-28T02:22:03.257Z,8.63
2022-09-28T02:26:12.054Z,8.63
2022-09-28T02:30:14.184Z,8.65
2022-09-28T02:34:15.845Z,8.68
2022-09-28T02:38:17.710Z,8.69
2022-09-28T02:42:23.892Z,8.70
2022-09-28T02:46:40.779Z,8.71
2022-09-28T02:51:07.975Z,8.69
2022-09-28T02:55:21.821Z,8.68
2022-09-28T02:59:43.782Z,8.70
2022-09-28T03:04:02.318Z,8.69
2022-09-28T03:08:11.336Z,8.68
2022-09-28T03:12:17.214Z,8.67
2022-09-28T03:16:20.118Z,8.65
2022-09-28T03:20:24.695Z,8.66
2022-09-28T03:24:26.877Z,8.66
2022-09-28T03:28:29.726Z,8.64
2022-09-28T03:32:32.513Z,8.64
2022-09-28T03:36:34.506Z,8.65
2022-09-28T03:40:36.300Z,8.67
2022-09-28T03:44:38.519Z,8.66
2022-09-28T03:48:41.003Z,8.67
2022-09-28T03:52:44.693Z,8.67
2022-09-28T03:56:46.918Z,8.68
2022-09-28T04:00:49.711Z,8.64
2022-09-28T04:04:51.555Z,8.57
2022-09-28T04:08:53.330Z,8.52
2022-09-28T04:12:56.732Z,8.47
2022-09-28T04:16:58.438Z,8.45
2022-09-28T04:21:07.136Z,8.44
2022-09-28T04:25:14.016Z,8.46
2022-09-28T04:29:16.129Z,8.48
2022-09-28T04:33:29.827Z,8.48
2022-09-28T04:37:31.655Z,8.46
2022-09-28T04:41:33.930Z,8.46
2022-09-28T04:45:36.185Z,8.48
2022-09-28T04:49:43.206Z,8.47
2022-09-28T04:54:04.486Z,8.47
2022-09-28T04:58:06.215Z,8.47
2022-09-28T05:02:08.515Z,8.45
2022-09-28T05:06:30.831Z,8.42
2022-09-28T05:10:42.041Z,8.40
2022-09-28T05:14:43.934Z,8.37
2022-09-28T05:18:45.977Z,8.31
2022-09-28T05:22:48.157Z,8.24
2022-09-28T05:26:50.304Z,8.23
2022-09-28T05:30:58.930Z,8.25
2022-09-28T05:35:20.979Z,8.29
2022-09-28T05:39:23.631Z,8.33
2022-09-28T05:43:25.298Z,8.38
2022-09-28T05:47:27.725Z,8.41
2022-09-28T05:51:29.749Z,8.43
2022-09-28T05:55:32.380Z,8.46
2022-09-28T05:59:35.311Z,8.48
2022-09-28T06:03:37.363Z,8.52
2022-09-28T06:07:42.829Z,8.57
2022-09-28T06:11:45.161Z,8.57
2022-09-28T06:16:08.538Z,8.56
2022-09-28T06:20:11.750Z,8.58
2022-09-28T06:24:31.013Z,8.68
2022-09-28T06:28:32.805Z,8.81
2022-09-28T06:32:34.676Z,8.96
2022-09-28T06:36:36.410Z,9.09
2022-09-28T06:40:38.521Z,9.22
2022-09-28T06:44:41.111Z,9.35
2022-09-28T06:48:44.179Z,9.43
2022-09-28T06:53:08.706Z,9.50
2022-09-28T06:57:39.763Z,9.53
2022-09-28T07:01:41.627Z,9.53
2022-09-28T07:06:15.380Z,9.52
2022-09-28T07:10:32.580Z,9.58
2022-09-28T07:14:47.718Z,9.66
2022-09-28T07:18:50.321Z,9.74
2022-09-28T07:22:56.726Z,9.81
2022-09-28T07:26:59.853Z,9.86
2022-09-28T07:31:20.342Z,9.92
2022-09-28T07:35:29.293Z,9.99
2022-09-28T07:39:52.515Z,10.05
2022-09-28T07:43:55.508Z,10.15
2022-09-28T07:47:57.249Z,10.22
2022-09-28T07:52:13.111Z,10.29
2022-09-28T07:56:53.097Z,10.36
2022-09-28T08:01:07.980Z,10.41
2022-09-28T08:05:10.790Z,10.44
2022-09-28T08:09:12.583Z,10.48
2022-09-28T08:13:55.499Z,10.54
2022-09-28T08:18:18.237Z,10.61
2022-09-28T08:22:20.511Z,10.68
2022-09-28T08:26:24.917Z,10.77
2022-09-28T08:30:27.476Z,10.88
2022-09-28T08:34:48.352Z,11.02
2022-09-28T08:39:13.250Z,11.13
2022-09-28T08:44:12.283Z,11.27
2022-09-28T08:48:56.192Z,11.40
2022-09-28T08:53:35.846Z,11.60
2022-09-28T08:57:58.038Z,11.73
2022-09-28T09:02:04.515Z,11.81
2022-09-28T09:06:42.309Z,11.87
2022-09-28T09:11:51.413Z,11.83
2022-09-28T09:16:38.291Z,11.74
2022-09-28T09:21:29.551Z,11.63
2022-09-28T09:25:47.573Z,11.60
2022-09-28T09:30:20.479Z,11.60
2022-09-28T09:34:54.634Z,11.68
2022-09-28T09:39:38.875Z,11.80
2022-09-28T09:44:18.596Z,11.87
2022-09-28T09:49:05.637Z,11.93
2022-09-28T09:53:18.995Z,11.95
2022-09-28T09:57:26.682Z,11.94
2022-09-28T10:01:52.165Z,11.94
2022-09-28T10:06:07.742Z,12.00
2022-09-28T10:10:21.618Z,12.02
2022-09-28T10:14:25.729Z,12.08
2022-09-28T10:18:36.681Z,12.15
2022-09-28T10:22:58.265Z,12.22
2022-09-28T10:27:06.594Z,12.30
2022-09-28T10:31:41.993Z,12.42
2022-09-28T10:35:55.191Z,12.59
2022-09-28T10:39:57.469Z,12.77
2022-09-28T10:44:08.947Z,13.00
2022-09-28T10:49:05.550Z,13.18
2022-09-28T10:53:17.383Z,13.24
2022-09-28T10:57:37.738Z,13.23
2022-09-28T11:01:42.466Z,13.14
2022-09-28T11:06:04.437Z,13.02
2022-09-28T11:10:18.204Z,12.90
2022-09-28T11:14:39.721Z,12.77
2022-09-28T11:18:46.512Z,12.70
2022-09-28T11:22:51.070Z,12.63
2022-09-28T11:26:57.791Z,12.45
2022-09-28T11:31:03.138Z,12.35
2022-09-28T11:35:44.367Z,12.28
2022-09-28T11:40:01.481Z,12.26
2022-09-28T11:44:15.583Z,12.30
2022-09-28T11:48:49.405Z,12.35
2022-09-28T11:53:00.663Z,12.44
2022-09-28T11:57:05.140Z,12.52
2022-09-28T12:01:35.686Z,12.61
2022-09-28T12:06:06.552Z,12.70
2022-09-28T12:10:35.840Z,12.78
2022-09-28T12:14:40.248Z,12.89
2022-09-28T12:19:30.861Z,13.01
2022-09-28T12:23:35.886Z,13.13
2022-09-28T12:27:47.870Z,13.24
2022-09-28T12:31:55.949Z,13.32
2022-09-28T12:36:09.694Z,13.45
2022-09-28T12:40:35.959Z,13.54
2022-09-28T12:44:45.281Z,13.63
2022-09-28T12:50:07.296Z,13.62
2022-09-28T12:53:53.209Z,13.50
2022-09-28T12:57:58.329Z,13.41
2022-09-28T13:02:15.028Z,13.30
2022-09-28T13:06:47.392Z,13.21
2022-09-28T13:10:58.669Z,13.15
2022-09-28T13:15:23.731Z,13.10
2022-09-28T13:19:37.402Z,13.11
2022-09-28T13:23:45.289Z,13.15
2022-09-28T13:27:57.955Z,13.15
2022-09-28T13:32:01.564Z,13.14
2022-09-28T13:36:24.758Z,13.08
2022-09-28T13:41:04.806Z,12.96
2022-09-28T13:45:22.497Z,12.78
2022-09-28T13:49:36.311Z,12.69
2022-09-28T13:53:40.613Z,12.63
2022-09-28T13:57:56.000Z,12.58
2022-09-28T14:02:18.969Z,12.56
2022-09-28T14:06:32.450Z,12.51
2022-09-28T14:10:52.158Z,12.48
2022-09-28T14:14:54.046Z,12.48
2022-09-28T14:19:20.554Z,12.47
2022-09-28T14:23:30.634Z,12.45
2022-09-28T14:28:06.750Z,12.46
2022-09-28T14:32:08.477Z,12.52
2022-09-28T14:37:01.782Z,12.56
2022-09-28T14:41:11.012Z,12.52
2022-09-28T14:45:12.710Z,12.48
2022-09-28T14:49:20.493Z,12.49
2022-09-28T14:53:24.895Z,12.52
2022-09-28T14:57:31.302Z,12.63
2022-09-28T15:01:36.146Z,12.72
2022-09-28T15:05:49.664Z,12.73
2022-09-28T15:09:55.371Z,12.76
2022-09-28T15:14:08.411Z,12.77
2022-09-28T15:18:19.271Z,12.76
2022-09-28T15:22:21.784Z,12.73
2022-09-28T15:26:33.433Z,12.70
2022-09-28T15:30:36.593Z,12.63
2022-09-28T15:34:54.689Z,12.55
2022-09-28T15:38:59.373Z,12.57
2022-09-28T15:43:02.501Z,12.48
2022-09-28T15:47:28.591Z,12.36
2022-09-28T15:51:44.948Z,12.27
2022-09-28T15:55:50.339Z,12.27
2022-09-28T15:59:57.104Z,12.32
2022-09-28T16:03:59.779Z,12.33
2022-09-28T16:08:05.400Z,12.32
2022-09-28T16:12:11.564Z,12.30
2022-09-28T16:16:17.000Z,12.29
2022-09-28T16:20:46.577Z,12.28
2022-09-28T16:24:57.460Z,12.34
2022-09-28T16:28:59.949Z,12.36
2022-09-28T16:33:05.309Z,12.37
2022-09-28T16:37:31.516Z,12.44
2022-09-28T16:41:33.292Z,12.46
2022-09-28T16:45:37.853Z,12.44
2022-09-28T16:49:40.071Z,12.42
2022-09-28T16:54:00.582Z,12.35
2022-09-28T16:58:04.718Z,12.28
2022-09-28T17:02:44.967Z,12.24
2022-09-28T17:06:43.641Z,12.13
2022-09-28T17:11:23.405Z,12.06
2022-09-28T17:15:26.053Z,11.99
2022-09-28T17:19:29.865Z,11.95
2022-09-28T17:23:31.888Z,11.90
2022-09-28T17:27:34.749Z,11.86
2022-09-28T17:31:36.419Z,11.79
2022-09-28T17:35:39.770Z,11.74
2022-09-28T17:39:41.552Z,11.68
2022-09-28T17:43:43.901Z,11.63
2022-09-28T17:47:45.720Z,11.57
2022-09-28T17:51:47.495Z,11.51
2022-09-28T17:55:49.207Z,11.45
2022-09-28T17:59:51.160Z,11.40
2022-09-28T18:03:52.870Z,11.35
2022-09-28T18:07:54.799Z,11.29
2022-09-28T18:12:01.109Z,11.25
2022-09-28T18:16:03.813Z,11.21
2022-09-28T18:20:07.973Z,11.16
2022-09-28T18:24:09.893Z,11.14
2022-09-28T18:28:14.540Z,11.11
2022-09-28T18:32:16.457Z,11.04
2022-09-28T18:36:18.179Z,10.98
2022-09-28T18:40:20.268Z,10.92
2022-09-28T18:44:22.628Z,10.90
2022-09-28T18:48:27.792Z,10.87
2022-09-28T18:52:29.793Z,10.84
2022-09-28T18:56:31.446Z,10.80
2022-09-28T19:00:33.628Z,10.79
2022-09-28T19:04:35.287Z,10.75
2022-09-28T19:08:37.432Z,10.72
2022-09-28T19:12:39.152Z,10.69
2022-09-28T19:16:41.362Z,10.67
2022-09-28T19:20:44.639Z,10.67
2022-09-28T19:24:46.390Z,10.64
2022-09-28T19:28:48.718Z,10.62
2022-09-28T19:32:50.374Z,10.64
2022-09-28T19:36:52.010Z,10.63
2022-09-28T19:40:53.869Z,10.60
2022-09-28T19:44:55.584Z,10.55
2022-09-28T19:49:00.870Z,10.52
2022-09-28T19:53:04.282Z,10.51
2022-09-28T19:57:08.017Z,10.51
2022-09-28T20:01:10.050Z,10.51
2022-09-28T20:05:11.821Z,10.51
2022-09-28T20:09:13.493Z,10.50
2022-09-28T20:13:15.213Z,10.50
2022-09-28T20:17:16.881Z,10.47
2022-09-28T20:21:24.960Z,10.45
2022-09-28T20:25:27.737Z,10.40
2022-09-28T20:29:31.786Z,10.40
2022-09-28T20:33:35.568Z,10.39
2022-09-28T20:37:37.292Z,10.36
2022-09-28T20:41:39.088Z,10.33
2022-09-28T20:45:40.818Z,10.32
2022-09-28T20:49:42.549Z,10.32
2022-09-28T20:53:48.931Z,10.27
2022-09-28T20:57:50.609Z,10.24
2022-09-28T21:01:52.730Z,10.21
2022-09-28T21:05:55.522Z,10.18
2022-09-28T21:09:57.980Z,10.13
2022-09-28T21:14:02.198Z,10.06
2022-09-28T21:18:04.030Z,10.00
2022-09-28T21:22:06.949Z,9.92
2022-09-28T21:26:18.969Z,9.81
2022-09-28T21:30:20.934Z,9.72
2022-09-28T21:34:22.591Z,9.64
2022-09-28T21:38:24.319Z,9.60
2022-09-28T21:42:26.016Z,9.56
2022-09-28T21:46:33.571Z,9.50
2022-09-28T21:50:35.133Z,9.41
2022-09-28T21:54:37.418Z,9.37
2022-09-28T21:58:40.234Z,9.32
2022-09-28T22:02:43.070Z,9.29
2022-09-28T22:06:44.770Z,9.23
2022-09-28T22:10:57.633Z,9.20
2022-09-28T22:14:59.578Z,9.16
2022-09-28T22:19:01.607Z,9.10
2022-09-28T22:23:03.486Z,9.07
2022-09-28T22:27:05.118Z,9.02
2022-09-28T22:31:06.861Z,8.99
2022-09-28T22:35:09.095Z,8.96
2022-09-28T22:39:10.805Z,8.93
2022-09-28T22:43:12.487Z,8.89
2022-09-28T22:47:14.136Z,8.85
2022-09-28T22:51:16.887Z,8.78
2022-09-28T22:55:18.537Z,8.74
2022-09-28T22:59:20.320Z,8.72
2022-09-28T23:03:22.198Z,8.70
2022-09-28T23:07:23.870Z,8.69
2022-09-28T23:11:25.546Z,8.70
2022-09-28T23:15:28.602Z,8.69
2022-09-28T23:19:30.274Z,8.66
2022-09-28T23:23:32.708Z,8.64
2022-09-28T23:27:34.393Z,8.61
2022-09-28T23:31:36.244Z,8.57
2022-09-28T23:35:37.934Z,8.55
2022-09-28T23:39:39.793Z,8.54
2022-09-28T23:43:41.517Z,8.49
2022-09-28T23:47:43.174Z,8.47
2022-09-28T23:51:44.864Z,8.46
2022-09-28T23:55:46.555Z,8.45
2022-09-28T23:59:48.210Z,8.44
